createdAt,value
2023-01-27T00:01:44.395Z,0.30
2023-01-27T00:04:12.350Z,0.34
2023-01-27T00:06:40.775Z,0.37
2023-01-27T00:09:11.305Z,0.29
2023-01-27T00:11:57.515Z,0.31
2023-01-27T00:14:25.841Z,0.28
2023-01-27T00:16:54.131Z,0.32
2023-01-27T00:19:23.437Z,0.35
2023-01-27T00:22:08.667Z,0.25
2023-01-27T00:24:38.555Z,0.30
2023-01-27T00:27:12.753Z,0.17
2023-01-27T00:29:41.438Z,0.21
2023-01-27T00:32:26.845Z,0.23
2023-01-27T00:34:54.942Z,0.29
2023-01-27T00:37:22.943Z,0.28
2023-01-27T00:39:52.825Z,0.34
2023-01-27T00:42:21.370Z,0.32
2023-01-27T00:45:05.043Z,0.37
2023-01-27T00:47:33.603Z,0.37
2023-01-27T00:50:02.777Z,0.35
2023-01-27T00:52:31.538Z,0.40
2023-01-27T00:55:01.043Z,0.36
2023-01-27T00:57:29.712Z,0.38
2023-01-27T00:59:59.952Z,0.40
2023-01-27T01:02:29.288Z,0.37
2023-01-27T01:04:57.255Z,0.37
2023-01-27T01:07:25.420Z,0.37
2023-01-27T01:09:57.973Z,0.41
2023-01-27T01:12:28.226Z,0.40
2023-01-27T01:14:57.243Z,0.42
2023-01-27T01:17:25.326Z,0.44
2023-01-27T01:19:54.957Z,0.44
2023-01-27T01:22:23.056Z,0.45
2023-01-27T01:24:51.715Z,0.48
2023-01-27T01:27:20.301Z,0.49
2023-01-27T01:29:52.179Z,0.44
2023-01-27T01:32:20.410Z,0.43
2023-01-27T01:34:48.393Z,0.43
2023-01-27T01:37:18.324Z,0.40
2023-01-27T01:39:46.248Z,0.40
2023-01-27T01:42:14.429Z,0.31
2023-01-27T01:44:45.262Z,0.39
2023-01-27T01:47:18.345Z,0.34
2023-01-27T01:49:47.813Z,0.29
2023-01-27T01:52:20.661Z,0.29
2023-01-27T01:54:51.169Z,0.35
2023-01-27T01:57:23.311Z,0.34
2023-01-27T01:59:55.199Z,0.38
2023-01-27T02:02:26.560Z,0.45
2023-01-27T02:04:58.613Z,0.47
2023-01-27T02:07:30.918Z,0.50
2023-01-27T02:09:59.795Z,0.55
2023-01-27T02:12:28.114Z,0.57
2023-01-27T02:14:56.196Z,0.45
2023-01-27T02:17:25.782Z,0.45
2023-01-27T02:19:59.723Z,0.56
2023-01-27T02:22:40.426Z,0.55
2023-01-27T02:25:17.634Z,0.47
2023-01-27T02:27:48.307Z,0.57
2023-01-27T02:30:16.912Z,0.54
2023-01-27T02:32:45.481Z,0.49
2023-01-27T02:35:18.457Z,0.48
2023-01-27T02:37:48.845Z,0.35
2023-01-27T02:40:18.014Z,0.34
2023-01-27T02:42:45.989Z,0.43
2023-01-27T02:45:17.130Z,0.43
2023-01-27T02:47:45.086Z,0.47
2023-01-27T02:50:13.210Z,0.50
2023-01-27T02:52:41.966Z,0.55
2023-01-27T02:55:12.609Z,0.63
2023-01-27T02:57:41.399Z,0.65
2023-01-27T03:00:49.482Z,0.64
2023-01-27T03:03:17.726Z,0.60
2023-01-27T03:05:46.099Z,0.62
2023-01-27T03:08:14.124Z,0.62
2023-01-27T03:10:43.519Z,0.66
2023-01-27T03:13:11.647Z,0.62
2023-01-27T03:15:58.222Z,0.64
2023-01-27T03:18:28.393Z,0.70
2023-01-27T03:21:02.534Z,0.65
2023-01-27T03:23:34.290Z,0.68
2023-01-27T03:26:05.132Z,0.64
2023-01-27T03:28:33.206Z,0.63
2023-01-27T03:31:07.150Z,0.63
2023-01-27T03:33:53.260Z,0.62
2023-01-27T03:36:43.847Z,0.58
2023-01-27T03:39:36.458Z,0.63
2023-01-27T03:42:21.832Z,0.62
2023-01-27T03:45:10.481Z,0.59
2023-01-27T03:47:40.901Z,0.63
2023-01-27T03:50:13.880Z,0.57
2023-01-27T03:52:41.983Z,0.57
2023-01-27T03:55:11.632Z,0.61
2023-01-27T03:57:41.356Z,0.65
2023-01-27T04:00:11.646Z,0.63
2023-01-27T04:03:00.559Z,0.66
2023-01-27T04:05:48.572Z,0.61
2023-01-27T04:08:16.633Z,0.62
2023-01-27T04:11:06.455Z,0.63
2023-01-27T04:13:33.699Z,0.65
2023-01-27T04:16:02.266Z,0.67
2023-01-27T04:18:30.530Z,0.68
2023-01-27T04:20:59.823Z,0.72
2023-01-27T04:23:28.025Z,0.72
2023-01-27T04:25:56.713Z,0.75
2023-01-27T04:28:43.259Z,0.75
2023-01-27T04:31:12.141Z,0.72
2023-01-27T04:33:40.276Z,0.71
2023-01-27T04:36:10.434Z,0.70
2023-01-27T04:38:38.636Z,0.71
2023-01-27T04:41:06.921Z,0.64
2023-01-27T04:43:34.945Z,0.66
2023-01-27T04:46:03.042Z,0.68
2023-01-27T04:48:31.556Z,0.65
2023-01-27T04:50:59.466Z,0.63
2023-01-27T04:53:28.822Z,0.72
2023-01-27T04:56:02.927Z,0.70
2023-01-27T04:58:31.198Z,0.70
2023-01-27T05:00:59.466Z,0.69
2023-01-27T05:03:27.475Z,0.69
2023-01-27T05:05:56.326Z,0.70
2023-01-27T05:08:24.273Z,0.74
2023-01-27T05:10:55.237Z,0.75
2023-01-27T05:13:23.620Z,0.77
2023-01-27T05:15:51.886Z,0.78
2023-01-27T05:18:19.905Z,0.80
2023-01-27T05:20:51.403Z,0.84
2023-01-27T05:23:37.403Z,0.84
2023-01-27T05:26:12.583Z,0.85
2023-01-27T05:28:42.006Z,0.85
2023-01-27T05:31:12.874Z,0.89
2023-01-27T05:33:41.696Z,0.86
2023-01-27T05:36:12.894Z,0.87
2023-01-27T05:38:40.899Z,0.88
2023-01-27T05:41:11.386Z,0.89
2023-01-27T05:43:41.735Z,0.89
2023-01-27T05:46:11.153Z,0.93
2023-01-27T05:48:41.541Z,0.91
2023-01-27T05:51:10.911Z,0.90
2023-01-27T05:53:40.361Z,0.91
2023-01-27T05:56:11.121Z,0.92
2023-01-27T05:58:39.414Z,0.93
2023-01-27T06:01:09.009Z,0.95
2023-01-27T06:03:37.881Z,0.97
2023-01-27T06:06:06.965Z,0.97
2023-01-27T06:08:35.451Z,0.89
2023-01-27T06:11:05.640Z,0.92
2023-01-27T06:13:36.231Z,0.85
2023-01-27T06:16:05.166Z,0.83
2023-01-27T06:18:34.596Z,0.83
2023-01-27T06:21:03.802Z,0.79
2023-01-27T06:23:32.316Z,0.82
2023-01-27T06:26:03.620Z,0.83
2023-01-27T06:28:31.764Z,0.76
2023-01-27T06:31:08.070Z,0.85
2023-01-27T06:33:36.130Z,0.85
2023-01-27T06:36:06.838Z,0.75
2023-01-27T06:38:35.462Z,0.81
2023-01-27T06:41:03.954Z,0.84
2023-01-27T06:43:32.443Z,0.89
2023-01-27T06:46:03.040Z,0.92
2023-01-27T06:48:37.764Z,0.96
2023-01-27T06:51:07.486Z,0.98
2023-01-27T06:53:37.327Z,0.98
2023-01-27T06:56:06.293Z,0.97
2023-01-27T06:58:35.029Z,1.02
2023-01-27T07:01:05.995Z,1.06
2023-01-27T07:03:37.512Z,1.09
2023-01-27T07:06:06.117Z,1.08
2023-01-27T07:08:34.196Z,1.08
2023-01-27T07:11:04.055Z,1.08
2023-01-27T07:13:33.411Z,1.11
2023-01-27T07:16:02.167Z,1.14
2023-01-27T07:18:30.882Z,1.13
2023-01-27T07:21:00.530Z,1.16
2023-01-27T07:23:28.563Z,1.21
2023-01-27T07:25:57.910Z,1.25
2023-01-27T07:28:26.822Z,1.26
2023-01-27T07:30:54.841Z,1.30
2023-01-27T07:33:22.901Z,1.33
2023-01-27T07:35:51.301Z,1.33
2023-01-27T07:38:21.297Z,1.40
2023-01-27T07:40:50.349Z,1.42
2023-01-27T07:43:18.478Z,1.45
2023-01-27T07:45:49.215Z,1.50
2023-01-27T07:48:17.579Z,1.50
2023-01-27T07:50:48.145Z,1.51
2023-01-27T07:53:16.986Z,1.62
2023-01-27T07:55:46.799Z,1.61
2023-01-27T07:58:15.533Z,1.60
2023-01-27T08:00:43.666Z,1.62
2023-01-27T08:03:22.832Z,1.68
2023-01-27T08:05:50.972Z,1.74
2023-01-27T08:08:23.601Z,1.86
2023-01-27T08:10:54.532Z,1.90
2023-01-27T08:13:22.687Z,1.93
2023-01-27T08:15:58.486Z,2.04
2023-01-27T08:18:27.049Z,2.12
2023-01-27T08:20:55.979Z,2.20
2023-01-27T08:23:23.947Z,2.25
2023-01-27T08:25:53.961Z,2.25
2023-01-27T08:28:23.676Z,2.26
2023-01-27T08:30:52.722Z,2.31
2023-01-27T08:33:22.061Z,2.39
2023-01-27T08:35:52.345Z,2.39
2023-01-27T08:38:21.069Z,2.37
2023-01-27T08:40:49.954Z,2.38
2023-01-27T08:43:20.698Z,2.42
2023-01-27T08:45:49.095Z,2.42
2023-01-27T08:48:19.420Z,2.45
2023-01-27T08:50:50.150Z,2.55
2023-01-27T08:53:18.420Z,2.52
2023-01-27T08:55:46.281Z,2.54
2023-01-27T08:58:17.101Z,2.51
2023-01-27T09:00:46.546Z,2.45
2023-01-27T09:03:15.219Z,2.48
2023-01-27T09:05:43.640Z,2.52
2023-01-27T09:08:12.139Z,2.57
2023-01-27T09:10:40.921Z,2.63
2023-01-27T09:13:09.233Z,2.72
2023-01-27T09:15:38.044Z,2.77
2023-01-27T09:18:10.201Z,2.77
2023-01-27T09:20:38.469Z,2.76
2023-01-27T09:23:06.849Z,2.71
2023-01-27T09:25:34.733Z,2.80
2023-01-27T09:28:02.799Z,2.79
2023-01-27T09:30:30.880Z,2.81
2023-01-27T09:33:00.110Z,2.84
2023-01-27T09:35:34.307Z,2.82
2023-01-27T09:38:05.706Z,2.88
2023-01-27T09:40:44.149Z,2.90
2023-01-27T09:43:41.947Z,3.01
2023-01-27T09:46:22.798Z,2.94
2023-01-27T09:49:13.322Z,2.95
2023-01-27T09:51:54.163Z,3.03
2023-01-27T09:54:37.100Z,3.11
2023-01-27T09:57:13.877Z,3.05
2023-01-27T09:59:55.089Z,3.05
2023-01-27T10:02:35.149Z,3.00
2023-01-27T10:05:43.255Z,3.10
2023-01-27T10:08:31.525Z,2.99
2023-01-27T10:11:14.716Z,3.00
2023-01-27T10:13:52.243Z,3.07
2023-01-27T10:16:34.339Z,2.98
2023-01-27T10:19:12.623Z,2.96
2023-01-27T10:21:48.487Z,2.99
2023-01-27T10:24:29.532Z,3.02
2023-01-27T10:27:01.353Z,2.98
2023-01-27T10:29:35.582Z,3.03
2023-01-27T10:32:11.523Z,3.01
2023-01-27T10:34:46.937Z,2.99
2023-01-27T10:37:25.421Z,3.04
2023-01-27T10:40:02.422Z,3.13
2023-01-27T10:42:37.316Z,3.18
2023-01-27T10:45:18.384Z,3.16
2023-01-27T10:47:58.248Z,3.20
2023-01-27T10:50:31.486Z,3.30
2023-01-27T10:53:03.745Z,3.27
2023-01-27T10:55:40.521Z,3.13
2023-01-27T10:58:13.989Z,3.17
2023-01-27T11:01:19.158Z,3.23
2023-01-27T11:03:38.331Z,3.34
2023-01-27T11:06:09.639Z,3.33
2023-01-27T11:08:40.222Z,3.39
2023-01-27T11:11:28.458Z,3.51
2023-01-27T11:14:05.661Z,3.52
2023-01-27T11:16:36.333Z,3.63
2023-01-27T11:19:13.935Z,3.52
2023-01-27T11:21:43.024Z,3.43
2023-01-27T11:24:20.406Z,3.56
2023-01-27T11:26:56.126Z,3.62
2023-01-27T11:29:30.449Z,3.78
2023-01-27T11:32:04.421Z,3.78
2023-01-27T11:34:36.845Z,3.83
2023-01-27T11:37:17.162Z,3.68
2023-01-27T11:39:45.853Z,3.59
2023-01-27T11:42:15.640Z,3.60
2023-01-27T11:44:44.774Z,3.60
2023-01-27T11:47:22.481Z,3.91
2023-01-27T11:49:52.287Z,3.83
2023-01-27T11:52:22.514Z,3.78
2023-01-27T11:54:55.521Z,3.94
2023-01-27T11:57:28.302Z,3.90
2023-01-27T12:00:00.590Z,3.91
2023-01-27T12:02:34.537Z,3.96
2023-01-27T12:05:06.857Z,4.00
2023-01-27T12:07:45.047Z,3.92
2023-01-27T12:10:26.378Z,3.91
2023-01-27T12:12:56.533Z,3.96
2023-01-27T12:15:26.956Z,4.01
2023-01-27T12:17:58.039Z,4.09
2023-01-27T12:20:35.300Z,4.12
2023-01-27T12:23:08.405Z,3.91
2023-01-27T12:25:45.256Z,3.79
2023-01-27T12:28:26.968Z,3.69
2023-01-27T12:30:57.213Z,3.73
2023-01-27T12:33:28.775Z,3.75
2023-01-27T12:36:01.431Z,3.75
2023-01-27T12:38:32.506Z,3.81
2023-01-27T12:41:04.106Z,3.77
2023-01-27T12:43:33.858Z,3.80
2023-01-27T12:46:10.171Z,3.83
2023-01-27T12:48:46.574Z,3.80
2023-01-27T12:51:17.308Z,3.76
2023-01-27T12:53:48.037Z,3.70
2023-01-27T12:56:18.352Z,3.67
2023-01-27T12:58:52.211Z,3.65
2023-01-27T13:01:26.049Z,3.56
2023-01-27T13:03:58.456Z,3.55
2023-01-27T13:06:44.276Z,3.53
2023-01-27T13:09:28.486Z,3.56
2023-01-27T13:11:57.500Z,3.45
2023-01-27T13:14:29.826Z,3.40
2023-01-27T13:16:59.431Z,3.46
2023-01-27T13:19:36.465Z,3.43
2023-01-27T13:22:05.527Z,3.49
2023-01-27T13:24:35.727Z,3.42
2023-01-27T13:27:05.864Z,3.32
2023-01-27T13:29:36.419Z,3.32
2023-01-27T13:32:06.971Z,3.32
2023-01-27T13:34:40.905Z,3.35
2023-01-27T13:37:12.392Z,3.31
2023-01-27T13:39:49.131Z,3.38
2023-01-27T13:42:20.888Z,3.30
2023-01-27T13:44:56.339Z,3.36
2023-01-27T13:47:27.171Z,3.33
2023-01-27T13:49:59.090Z,3.29
2023-01-27T13:52:27.949Z,3.24
2023-01-27T13:54:56.212Z,3.33
2023-01-27T13:57:37.833Z,3.48
2023-01-27T14:00:12.901Z,3.47
2023-01-27T14:03:25.437Z,3.51
2023-01-27T14:06:01.759Z,3.44
2023-01-27T14:08:45.234Z,3.46
2023-01-27T14:11:20.616Z,3.48
2023-01-27T14:13:58.528Z,3.41
2023-01-27T14:16:37.177Z,3.46
2023-01-27T14:19:13.496Z,3.63
2023-01-27T14:21:50.439Z,3.58
2023-01-27T14:24:26.078Z,3.78
2023-01-27T14:27:00.838Z,3.74
2023-01-27T14:29:34.897Z,3.75
2023-01-27T14:32:12.999Z,3.65
2023-01-27T14:34:51.119Z,3.52
2023-01-27T14:37:24.341Z,3.52
2023-01-27T14:40:04.032Z,3.54
2023-01-27T14:42:39.104Z,3.58
2023-01-27T14:45:17.741Z,3.41
2023-01-27T14:47:58.581Z,3.53
2023-01-27T14:50:32.751Z,3.51
2023-01-27T14:53:10.338Z,3.52
2023-01-27T14:55:46.337Z,3.49
2023-01-27T14:58:41.329Z,3.42
2023-01-27T15:01:18.859Z,3.33
2023-01-27T15:04:11.302Z,3.36
2023-01-27T15:06:43.817Z,3.41
2023-01-27T15:09:21.346Z,3.45
2023-01-27T15:12:17.275Z,3.46
2023-01-27T15:15:13.997Z,3.47
2023-01-27T15:17:56.657Z,3.46
2023-01-27T15:20:41.860Z,3.44
2023-01-27T15:23:28.799Z,3.37
2023-01-27T15:25:59.930Z,3.41
2023-01-27T15:28:30.955Z,3.35
2023-01-27T15:31:25.819Z,3.35
2023-01-27T15:33:56.557Z,3.41
2023-01-27T15:36:34.831Z,3.38
2023-01-27T15:39:21.828Z,3.41
2023-01-27T15:41:53.933Z,3.39
2023-01-27T15:44:30.927Z,3.34
2023-01-27T15:47:09.434Z,3.37
2023-01-27T15:49:39.343Z,3.42
2023-01-27T15:52:23.480Z,3.43
2023-01-27T15:54:53.478Z,3.38
2023-01-27T15:57:26.626Z,3.30
2023-01-27T15:59:59.552Z,3.36
2023-01-27T16:02:29.922Z,3.31
2023-01-27T16:05:06.922Z,3.34
2023-01-27T16:07:37.708Z,3.33
2023-01-27T16:10:10.729Z,3.32
2023-01-27T16:12:42.389Z,3.33
2023-01-27T16:15:25.031Z,3.34
2023-01-27T16:18:16.750Z,3.29
2023-01-27T16:20:52.919Z,3.26
2023-01-27T16:23:33.368Z,3.30
2023-01-27T16:26:09.920Z,3.27
2023-01-27T16:28:38.700Z,3.29
2023-01-27T16:31:13.845Z,3.29
2023-01-27T16:33:45.810Z,3.29
2023-01-27T16:36:22.071Z,3.27
2023-01-27T16:38:51.861Z,3.29
2023-01-27T16:41:22.167Z,3.25
2023-01-27T16:43:53.423Z,3.23
2023-01-27T16:46:33.636Z,3.23
2023-01-27T16:49:04.807Z,3.25
2023-01-27T16:51:35.028Z,3.27
2023-01-27T16:54:15.788Z,3.27
2023-01-27T16:56:44.029Z,3.26
2023-01-27T16:59:19.931Z,3.25
2023-01-27T17:01:50.486Z,3.22
2023-01-27T17:04:21.204Z,3.23
2023-01-27T17:06:49.974Z,3.26
2023-01-27T17:09:23.420Z,3.27
2023-01-27T17:11:53.684Z,3.23
2023-01-27T17:14:31.640Z,3.15
2023-01-27T17:17:03.084Z,3.14
2023-01-27T17:19:33.281Z,3.08
2023-01-27T17:22:04.258Z,3.07
2023-01-27T17:24:35.804Z,3.04
2023-01-27T17:27:06.276Z,2.95
2023-01-27T17:29:38.606Z,2.98
2023-01-27T17:32:19.712Z,3.03
2023-01-27T17:34:48.076Z,3.02
2023-01-27T17:37:17.612Z,2.93
2023-01-27T17:39:48.121Z,2.91
2023-01-27T17:42:18.165Z,2.91
2023-01-27T17:44:49.222Z,2.79
2023-01-27T17:47:18.810Z,2.71
2023-01-27T17:49:50.617Z,2.68
2023-01-27T17:52:21.360Z,2.67
2023-01-27T17:54:53.655Z,2.65
2023-01-27T17:57:23.435Z,2.67
2023-01-27T17:59:59.602Z,2.59
2023-01-27T18:02:29.681Z,2.50
2023-01-27T18:05:00.511Z,2.44
2023-01-27T18:07:29.161Z,2.42
2023-01-27T18:10:01.050Z,2.41
2023-01-27T18:12:34.689Z,2.38
2023-01-27T18:15:33.353Z,2.37
2023-01-27T18:18:02.208Z,2.38
2023-01-27T18:20:30.916Z,2.41
2023-01-27T18:22:59.072Z,2.53
2023-01-27T18:25:29.635Z,2.53
2023-01-27T18:27:58.059Z,2.57
2023-01-27T18:30:26.562Z,2.56
2023-01-27T18:33:01.425Z,2.52
2023-01-27T18:35:32.597Z,2.56
2023-01-27T18:38:03.751Z,2.60
2023-01-27T18:40:35.994Z,2.61
2023-01-27T18:43:05.663Z,2.56
2023-01-27T18:45:33.678Z,2.62
2023-01-27T18:48:03.772Z,2.62
2023-01-27T18:50:31.732Z,2.60
2023-01-27T18:52:59.838Z,2.62
2023-01-27T18:55:30.665Z,2.59
2023-01-27T18:58:02.263Z,2.55
2023-01-27T19:00:34.851Z,2.51
2023-01-27T19:03:03.764Z,2.50
2023-01-27T19:05:34.846Z,2.48
2023-01-27T19:08:03.407Z,2.41
2023-01-27T19:10:33.757Z,2.37
2023-01-27T19:13:05.749Z,2.33
2023-01-27T19:15:36.115Z,2.30
2023-01-27T19:18:10.583Z,2.24
2023-01-27T19:20:38.905Z,2.22
2023-01-27T19:23:09.664Z,2.17
2023-01-27T19:25:37.596Z,2.20
2023-01-27T19:28:14.664Z,2.23
2023-01-27T19:30:43.782Z,2.20
2023-01-27T19:33:18.322Z,2.16
2023-01-27T19:35:50.476Z,2.13
2023-01-27T19:38:21.319Z,2.16
2023-01-27T19:40:49.471Z,2.09
2023-01-27T19:43:19.047Z,2.04
2023-01-27T19:45:49.273Z,2.00
2023-01-27T19:48:18.763Z,1.97
2023-01-27T19:50:46.993Z,1.98
2023-01-27T19:53:16.287Z,1.91
2023-01-27T19:55:45.260Z,1.92
2023-01-27T19:58:24.680Z,1.94
2023-01-27T20:00:53.548Z,1.95
2023-01-27T20:03:21.984Z,1.98
2023-01-27T20:05:51.503Z,1.97
2023-01-27T20:08:21.121Z,1.97
2023-01-27T20:10:49.088Z,1.99
2023-01-27T20:13:18.598Z,1.94
2023-01-27T20:15:48.427Z,1.93
2023-01-27T20:18:18.137Z,1.90
2023-01-27T20:20:47.524Z,1.88
2023-01-27T20:23:15.746Z,1.89
2023-01-27T20:25:44.346Z,1.95
2023-01-27T20:28:13.821Z,1.84
2023-01-27T20:30:43.398Z,1.81
2023-01-27T20:33:14.750Z,1.85
2023-01-27T20:35:42.685Z,1.80
2023-01-27T20:38:10.700Z,1.77
2023-01-27T20:40:38.673Z,1.80
2023-01-27T20:43:07.755Z,1.74
2023-01-27T20:45:40.555Z,1.74
2023-01-27T20:48:13.270Z,1.66
2023-01-27T20:50:41.589Z,1.69
2023-01-27T20:53:09.531Z,1.69
2023-01-27T20:55:37.438Z,1.79
2023-01-27T20:58:05.535Z,1.71
2023-01-27T21:00:34.179Z,1.77
2023-01-27T21:03:04.269Z,1.75
2023-01-27T21:05:34.583Z,1.77
2023-01-27T21:08:03.623Z,1.76
2023-01-27T21:10:33.507Z,1.65
2023-01-27T21:13:02.000Z,1.64
2023-01-27T21:15:30.196Z,1.66
2023-01-27T21:17:58.342Z,1.69
2023-01-27T21:20:26.743Z,1.66
2023-01-27T21:22:56.049Z,1.65
2023-01-27T21:25:26.604Z,1.61
2023-01-27T21:27:54.673Z,1.50
2023-01-27T21:30:25.516Z,1.45
2023-01-27T21:32:53.946Z,1.40
2023-01-27T21:35:21.956Z,1.43
2023-01-27T21:37:50.140Z,1.33
2023-01-27T21:40:19.886Z,1.41
2023-01-27T21:43:05.148Z,1.33
2023-01-27T21:45:33.183Z,1.34
2023-01-27T21:48:02.226Z,1.30
2023-01-27T21:50:30.551Z,1.30
2023-01-27T21:52:58.424Z,1.29
2023-01-27T21:55:30.718Z,1.19
2023-01-27T21:57:58.782Z,1.14
2023-01-27T22:00:28.311Z,1.11
2023-01-27T22:02:56.835Z,1.07
2023-01-27T22:05:26.260Z,1.01
2023-01-27T22:07:54.649Z,0.98
2023-01-27T22:10:24.105Z,0.94
2023-01-27T22:12:58.186Z,0.92
2023-01-27T22:15:28.876Z,0.86
2023-01-27T22:17:57.022Z,0.80
2023-01-27T22:20:25.053Z,0.73
2023-01-27T22:22:53.522Z,0.69
2023-01-27T22:25:22.442Z,0.62
2023-01-27T22:27:50.770Z,0.55
2023-01-27T22:30:21.011Z,0.47
2023-01-27T22:32:51.362Z,0.43
2023-01-27T22:35:20.663Z,0.38
2023-01-27T22:37:49.850Z,0.32
2023-01-27T22:40:19.059Z,0.29
2023-01-27T22:42:53.680Z,0.23
2023-01-27T22:45:23.993Z,0.20
2023-01-27T22:47:52.056Z,0.13
2023-01-27T22:50:20.723Z,0.10
2023-01-27T22:52:48.920Z,0.09
2023-01-27T22:55:20.201Z,0.09
2023-01-27T22:57:48.998Z,0.07
2023-01-27T23:00:20.213Z,0.06
2023-01-27T23:02:49.636Z,0.10
2023-01-27T23:05:18.058Z,0.09
2023-01-27T23:07:47.700Z,0.14
2023-01-27T23:10:16.579Z,0.17
2023-01-27T23:12:49.167Z,0.18
2023-01-27T23:15:23.800Z,0.16
2023-01-27T23:17:53.147Z,0.20
2023-01-27T23:20:21.276Z,0.12
2023-01-27T23:22:49.233Z,0.06
2023-01-27T23:25:17.572Z,0.03
2023-01-27T23:27:45.828Z,-0.02
2023-01-27T23:30:14.653Z,-0.06
2023-01-27T23:32:43.037Z,-0.09
2023-01-27T23:35:12.855Z,-0.16
2023-01-27T23:37:40.917Z,-0.18
2023-01-27T23:40:12.344Z,-0.20
2023-01-27T23:42:40.407Z,-0.26
2023-01-27T23:45:09.173Z,-0.27
2023-01-27T23:47:37.626Z,-0.28
2023-01-27T23:50:06.528Z,-0.31
2023-01-27T23:52:36.551Z,-0.33
2023-01-27T23:55:04.759Z,-0.37
2023-01-27T23:57:33.928Z,-0.38
